Time;durP1;ratioP1;P1;durP2;ratioP2;P2;SDS_P1;SDS_P2;PMS_P1;PMS_P2;Temp;Humidity;BMP_temperature;BMP_pressure;BME280_temperature;BME280_humidity;BME280_pressure;Samples;Min_cycle;Max_cycle;Signal;HPM_P1;HPM_P2
2023/06/17 00:01:34;;;;;;;0.00;0.00;;;;;;;;;;6299133;22;20014;-90
2023/06/17 00:04:00;;;;;;;0.00;0.00;;;;;;;;;;6301595;22;20034;-89
2023/06/17 00:06:26;;;;;;;0.00;0.00;;;;;;;;;;6295871;22;20095;-89
2023/06/17 00:08:54;;;;;;;0.00;0.00;;;16.60;99.90;;;;;;6300661;22;19999;-91
2023/06/17 00:11:20;;;;;;;0.00;0.00;;;16.40;99.90;;;;;;6300206;22;20026;-90
2023/06/17 00:13:46;;;;;;;0.00;0.00;;;16.20;99.90;;;;;;6301802;22;19999;-89
2023/06/17 00:16:13;;;;;;;0.00;0.00;;;16.10;99.90;;;;;;6312017;22;20001;-87
2023/06/17 00:18:41;;;;;;;0.00;0.00;;;19.40;99.90;;;;;;6305152;22;20501;-85
2023/06/17 00:21:06;;;;;;;0.00;0.00;;;15.80;99.90;;;;;;6311795;22;20003;-89
2023/06/17 00:23:32;;;;;;;0.00;0.00;;;;;;;;;;6311663;22;20090;-86
2023/06/17 00:25:58;;;;;;;0.00;0.00;;;;;;;;;;6312557;22;20216;-86
2023/06/17 00:28:24;;;;;;;0.00;0.00;;;;;;;;;;6310078;22;20007;-88
2023/06/17 00:30:50;;;;;;;0.00;0.00;;;15.60;99.90;;;;;;6300523;22;20010;-90
2023/06/17 00:33:15;;;;;;;0.00;0.00;;;;;;;;;;6309337;22;20002;-85
2023/06/17 00:35:41;;;;;;;0.00;0.00;;;15.40;99.90;;;;;;6310978;22;20003;-88
2023/06/17 00:38:07;;;;;;;0.00;0.00;;;15.50;99.90;;;;;;6310292;22;20017;-88
2023/06/17 00:40:33;;;;;;;0.00;0.00;;;;;;;;;;6308111;22;20007;-85
2023/06/17 00:42:58;;;;;;;0.00;0.00;;;15.30;99.90;;;;;;6307016;22;20029;-90
2023/06/17 00:45:25;;;;;;;0.00;0.00;;;;;;;;;;6301624;22;20003;-91
2023/06/17 00:47:51;;;;;;;0.00;0.00;;;15.30;99.90;;;;;;6308325;22;20173;-90
2023/06/17 00:50:17;;;;;;;0.00;0.00;;;15.20;99.90;;;;;;6307294;22;20004;-86
2023/06/17 00:52:44;;;;;;;0.00;0.00;;;15.20;99.90;;;;;;6317142;22;19995;-85
2023/06/17 00:55:11;;;;;;;0.00;0.00;;;15.10;99.90;;;;;;6321203;22;20041;-85
2023/06/17 00:57:38;;;;;;;0.00;0.00;;;15.00;99.90;;;;;;6317621;22;20003;-86
2023/06/17 01:00:06;;;;;;;0.00;0.00;;;16.80;99.90;;;;;;6312392;22;20009;-88
2023/06/17 01:02:32;;;;;;;0.00;0.00;;;14.80;99.90;;;;;;6302780;22;20003;-86
2023/06/17 01:05:01;;;;;;;0.00;0.00;;;14.80;99.90;;;;;;6313921;22;20037;-87
2023/06/17 01:08:14;;;;;;;0.00;0.00;;;14.70;99.90;;;;;;6308149;22;20453;-90
2023/06/17 01:10:45;;;;;;;0.00;0.00;;;14.70;99.90;;;;;;6161351;23;20234;-90
2023/06/17 01:13:13;;;;;;;0.00;0.00;;;14.70;99.90;;;;;;6307371;22;20240;-89
2023/06/17 01:15:38;;;;;;;0.00;0.00;;;14.60;99.90;;;;;;6305684;22;20030;-88
2023/06/17 01:18:07;;;;;;;0.00;0.00;;;14.40;99.90;;;;;;6316615;22;20014;-85
2023/06/17 01:20:33;;;;;;;0.00;0.00;;;14.40;99.90;;;;;;6306521;22;20007;-87
2023/06/17 01:22:59;;;;;;;0.00;0.00;;;14.40;99.90;;;;;;6309261;22;20608;-86
2023/06/17 01:25:29;;;;;;;0.00;0.00;;;14.40;99.90;;;;;;6315742;22;20056;-89
2023/06/17 01:28:00;;;;;;;0.00;0.00;;;14.40;99.90;;;;;;6316924;22;19991;-91
2023/06/17 01:30:30;;;;;;;0.00;0.00;;;17.40;99.90;;;;;;6314702;22;20007;-87
2023/06/17 01:33:00;;;;;;;;;;;14.30;99.90;;;;;;6320539;22;20007;-88
2023/06/17 01:35:32;;;;;;;0.00;0.00;;;14.40;99.90;;;;;;6319119;22;20352;-89
2023/06/17 01:38:34;;;;;;;0.00;0.00;;;14.40;99.90;;;;;;6321526;22;20504;-90
2023/06/17 01:41:02;;;;;;;0.00;0.00;;;14.30;99.90;;;;;;6249149;22;20015;-87
2023/06/17 01:43:31;;;;;;;0.00;0.00;;;14.30;99.90;;;;;;6320071;22;20047;-87
2023/06/17 01:45:58;;;;;;;0.00;0.00;;;14.20;99.90;;;;;;6319199;22;20007;-89
2023/06/17 01:48:24;;;;;;;0.00;0.00;;;14.20;99.90;;;;;;6319617;22;20290;-89
2023/06/17 01:50:50;;;;;;;0.00;0.00;;;;;;;;;;6319969;22;20014;-92
2023/06/17 01:53:15;;;;;;;0.00;0.00;;;14.10;99.90;;;;;;6318561;22;20017;-89
2023/06/17 01:55:41;;;;;;;0.00;0.00;;;;;;;;;;6314801;22;20031;-90
2023/06/17 01:58:07;;;;;;;0.00;0.00;;;14.10;99.90;;;;;;6304984;22;20517;-90
2023/06/17 02:00:33;;;;;;;0.00;0.00;;;;;;;;;;6308822;22;20019;-88
2023/06/17 02:02:58;;;;;;;0.00;0.00;;;13.90;99.90;;;;;;6313156;22;20025;-88
2023/06/17 02:05:24;;;;;;;0.00;0.00;;;;;;;;;;6311808;22;20477;-90
2023/06/17 02:07:52;;;;;;;0.00;0.00;;;;;;;;;;6310483;22;19999;-90
2023/06/17 02:10:18;;;;;;;0.00;0.00;;;13.90;99.90;;;;;;6317981;22;20003;-89
2023/06/17 02:12:44;;;;;;;0.00;0.00;;;;;;;;;;6313684;22;20461;-87
2023/06/17 02:15:10;;;;;;;0.00;0.00;;;;;;;;;;6319402;22;19999;-89
2023/06/17 02:17:35;;;;;;;0.00;0.00;;;13.70;99.90;;;;;;6317831;22;20014;-87
2023/06/17 02:20:05;;;;;;;0.00;0.00;;;13.70;99.90;;;;;;6316645;22;19999;-90
2023/06/17 02:22:31;;;;;;;0.00;0.00;;;13.70;99.90;;;;;;6322474;22;20011;-92
2023/06/17 02:24:57;;;;;;;0.00;0.00;;;;;;;;;;6316898;22;20003;-88
2023/06/17 02:27:23;;;;;;;0.00;0.00;;;;;;;;;;6312160;22;20003;-91
2023/06/17 02:29:49;;;;;;;0.00;0.00;;;;;;;;;;6312421;22;20070;-91
2023/06/17 02:32:17;;;;;;;0.00;0.00;;;;;;;;;;6323821;22;20003;-88
2023/06/17 02:34:43;;;;;;;0.00;0.00;;;13.50;99.90;;;;;;6325711;22;19995;-88
2023/06/17 02:37:09;;;;;;;0.00;0.00;;;13.60;99.90;;;;;;6314287;22;20007;-90
2023/06/17 02:39:35;;;;;;;0.00;0.00;;;13.60;99.90;;;;;;6311312;22;20338;-90
2023/06/17 02:42:01;;;;;;;0.00;0.00;;;13.70;99.90;;;;;;6309519;22;20009;-86
2023/06/17 02:44:26;;;;;;;0.00;0.00;;;13.60;99.90;;;;;;6313356;22;20007;-86
2023/06/17 02:46:52;;;;;;;0.00;0.00;;;13.50;99.90;;;;;;6314421;22;20014;-87
2023/06/17 02:49:30;;;;;;;0.00;0.00;;;13.40;99.90;;;;;;6313774;22;19995;-89
2023/06/17 02:51:55;;;;;;;0.00;0.00;;;13.40;99.90;;;;;;6311122;22;20011;-89
2023/06/17 02:54:21;;;;;;;0.00;0.00;;;;;;;;;;6309387;22;20025;-90
2023/06/17 02:56:46;;;;;;;0.00;0.00;;;13.40;99.90;;;;;;6306949;22;20029;-90
2023/06/17 02:59:14;;;;;;;0.00;0.00;;;13.40;99.90;;;;;;6317075;22;20003;-89
2023/06/17 03:01:43;;;;;;;0.00;0.00;;;13.40;99.90;;;;;;6311558;22;20030;-89
2023/06/17 03:04:12;;;;;;;0.00;0.00;;;13.40;99.90;;;;;;6310622;22;20346;-89
2023/06/17 03:06:40;;;;;;;0.00;0.00;;;13.30;99.90;;;;;;6313469;22;20000;-92
2023/06/17 03:09:06;;;;;;;0.00;0.00;;;;;;;;;;6314394;22;19999;-89
2023/06/17 03:11:32;;;;;;;0.00;0.00;;;13.30;99.90;;;;;;6311304;22;20002;-89
2023/06/17 03:13:58;;;;;;;0.00;0.00;;;;;;;;;;6302553;22;20007;-90
2023/06/17 03:16:24;;;;;;;0.00;0.00;;;;;;;;;;6304058;22;20445;-90
2023/06/17 03:18:50;;;;;;;0.00;0.00;;;13.50;99.90;;;;;;6307395;22;20014;-86
2023/06/17 03:21:15;;;;;;;0.00;0.00;;;13.40;99.90;;;;;;6316569;22;20011;-91
2023/06/17 03:23:42;;;;;;;0.00;0.00;;;;;;;;;;6313498;22;20521;-91
2023/06/17 03:26:09;;;;;;;0.00;0.00;;;;;;;;;;6306225;22;20003;-89
2023/06/17 03:28:35;;;;;;;0.00;0.00;;;13.40;99.90;;;;;;6303186;22;19999;-87
2023/06/17 03:31:01;;;;;;;0.00;0.00;;;13.40;99.90;;;;;;6307098;22;19999;-90
2023/06/17 03:33:26;;;;;;;0.00;0.00;;;13.40;99.90;;;;;;6305600;22;20145;-88
2023/06/17 03:35:52;;;;;;;0.00;0.00;;;13.50;99.90;;;;;;6306763;22;20029;-91
2023/06/17 03:38:19;;;;;;;0.00;0.00;;;13.40;99.90;;;;;;6312780;22;20089;-88
2023/06/17 03:40:45;;;;;;;0.00;0.00;;;13.40;99.90;;;;;;6318596;22;20042;-87
2023/06/17 03:43:13;;;;;;;0.00;0.00;;;;;;;;;;6305915;22;20007;-89
2023/06/17 03:45:39;;;;;;;0.00;0.00;;;13.50;99.90;;;;;;6319998;22;20346;-90
2023/06/17 03:48:05;;;;;;;0.00;0.00;;;;;;;;;;6317057;22;20003;-91
2023/06/17 03:50:31;;;;;;;0.00;0.00;;;13.50;99.90;;;;;;6312445;22;20528;-91
2023/06/17 03:52:57;;;;;;;0.00;0.00;;;13.40;99.90;;;;;;6306590;22;20007;-90
2023/06/17 03:55:23;;;;;;;0.00;0.00;;;;;;;;;;6311512;22;20034;-89
2023/06/17 03:57:49;;;;;;;0.00;0.00;;;13.50;99.90;;;;;;6312976;22;19999;-87
2023/06/17 04:00:15;;;;;;;0.00;0.00;;;13.60;99.90;;;;;;6315249;22;20315;-90
2023/06/17 04:02:45;;;;;;;0.00;0.00;;;13.60;99.90;;;;;;6307600;22;20007;-89
2023/06/17 04:05:13;;;;;;;0.00;0.00;;;13.60;99.90;;;;;;6278950;22;20007;-86
2023/06/17 04:07:39;;;;;;;0.00;0.00;;;13.70;99.90;;;;;;6304144;22;19999;-88
2023/06/17 04:10:09;;;;;;;0.00;0.00;;;13.70;99.90;;;;;;6303927;22;20001;-89
2023/06/17 04:12:38;;;;;;;0.00;0.00;;;13.70;99.90;;;;;;6307131;22;20027;-85
2023/06/17 04:15:08;;;;;;;0.00;0.00;;;13.80;99.90;;;;;;6310138;22;19999;-90
2023/06/17 04:17:36;;;;;;;0.00;0.00;;;13.80;99.90;;;;;;6307625;22;19995;-88
2023/06/17 04:20:09;;;;;;;0.00;0.00;;;13.70;99.90;;;;;;6279420;22;20011;-90
2023/06/17 04:22:34;;;;;;;0.00;0.00;;;13.80;99.90;;;;;;6305505;22;20444;-88
2023/06/17 04:25:00;;;;;;;0.00;0.00;;;;;;;;;;6303286;22;20004;-89
2023/06/17 04:27:26;;;;;;;0.00;0.00;;;13.80;99.90;;;;;;6304048;22;20031;-89
2023/06/17 04:29:51;;;;;;;0.00;0.00;;;13.80;99.90;;;;;;6309660;22;20015;-88
2023/06/17 04:32:17;;;;;;;0.00;0.00;;;;;;;;;;6318307;22;20088;-87
2023/06/17 04:34:47;;;;;;;0.00;0.00;;;13.90;99.90;;;;;;6316096;22;19999;-86
2023/06/17 04:37:14;;;;;;;0.00;0.00;;;13.90;99.90;;;;;;6306867;22;20080;-91
2023/06/17 04:39:42;;;;;;;0.00;0.00;;;14.00;99.90;;;;;;6305515;22;20331;-91
2023/06/17 04:42:08;;;;;;;0.00;0.00;;;14.10;99.90;;;;;;6303257;22;20447;-89
2023/06/17 04:44:33;;;;;;;0.00;0.00;;;14.30;99.90;;;;;;6303738;22;20025;-90
2023/06/17 04:46:59;;;;;;;0.00;0.00;;;14.30;99.90;;;;;;6304050;22;20007;-90
2023/06/17 04:49:25;;;;;;;0.00;0.00;;;14.40;99.90;;;;;;6304705;22;20026;-90
2023/06/17 04:51:52;;;;;;;0.00;0.00;;;;;;;;;;6306530;22;20051;-90
2023/06/17 04:54:18;;;;;;;0.00;0.00;;;14.90;99.90;;;;;;6308584;22;20018;-89
2023/06/17 04:56:44;;;;;;;0.00;0.00;;;;;;;;;;6308327;22;20004;-89
2023/06/17 04:59:10;;;;;;;0.00;0.00;;;14.90;99.90;;;;;;6308464;22;20003;-89
2023/06/17 05:01:35;;;;;;;0.00;0.00;;;15.00;99.90;;;;;;6308944;22;20434;-90
2023/06/17 05:04:03;;;;;;;0.00;0.00;;;;;;;;;;6307582;22;20007;-89
2023/06/17 05:06:28;;;;;;;0.00;0.00;;;14.90;99.90;;;;;;6309434;22;20362;-88
2023/06/17 05:08:54;;;;;;;0.00;0.00;;;;;;;;;;6311132;22;20000;-88
2023/06/17 05:11:20;;;;;;;0.00;0.00;;;;;;;;;;6311115;22;20007;-87
2023/06/17 05:13:46;;;;;;;0.00;0.00;;;15.10;99.90;;;;;;6312036;22;20010;-89
2023/06/17 05:16:12;;;;;;;0.00;0.00;;;;;;;;;;6307537;22;20007;-89
2023/06/17 05:18:37;;;;;;;0.00;0.00;;;15.50;99.90;;;;;;6309055;22;20330;-90
2023/06/17 05:21:04;;;;;;;0.00;0.00;;;15.60;99.90;;;;;;6308348;22;20003;-87
2023/06/17 05:23:29;;;;;;;0.00;0.00;;;15.50;99.90;;;;;;6309594;22;20374;-89
2023/06/17 05:25:55;;;;;;;0.00;0.00;;;;;;;;;;6309254;22;19999;-88
2023/06/17 05:28:21;;;;;;;0.00;0.00;;;15.90;99.90;;;;;;6307140;22;20010;-88
2023/06/17 05:30:47;;;;;;;0.00;0.00;;;;;;;;;;6306858;22;20003;-88
2023/06/17 05:33:13;;;;;;;0.00;0.00;;;16.10;99.90;;;;;;6308557;22;19999;-88
2023/06/17 05:35:38;;;;;;;0.00;0.00;;;;;;;;;;6308073;22;20334;-89
2023/06/17 05:38:04;;;;;;;0.00;0.00;;;;;;;;;;6310045;22;20442;-89
2023/06/17 05:40:30;;;;;;;0.00;0.00;;;;;;;;;;6309277;22;20003;-89
2023/06/17 05:42:56;;;;;;;0.00;0.00;;;16.10;99.90;;;;;;6308901;22;19999;-88
2023/06/17 05:45:22;;;;;;;0.00;0.00;;;;;;;;;;6309134;22;20030;-88
2023/06/17 05:47:48;;;;;;;0.00;0.00;;;;;;;;;;6307860;22;20498;-88
2023/06/17 05:50:13;;;;;;;0.00;0.00;;;16.50;99.90;;;;;;6305221;22;20006;-87
2023/06/17 05:52:39;;;;;;;0.00;0.00;;;16.80;99.90;;;;;;6307737;22;20011;-89
2023/06/17 05:55:05;;;;;;;0.00;0.00;;;17.10;99.90;;;;;;6310796;22;20003;-88
2023/06/17 05:57:30;;;;;;;0.00;0.00;;;17.20;99.90;;;;;;6309222;22;20003;-87
2023/06/17 05:59:56;;;;;;;0.00;0.00;;;;;;;;;;6307731;22;20003;-89
2023/06/17 06:02:22;;;;;;;0.00;0.00;;;;;;;;;;6309019;22;19995;-89
2023/06/17 06:04:48;;;;;;;0.00;0.00;;;17.20;99.90;;;;;;6306565;22;20007;-88
2023/06/17 06:07:14;;;;;;;0.00;0.00;;;;;;;;;;6306142;22;20086;-88
2023/06/17 06:09:40;;;;;;;0.00;0.00;;;;;;;;;;6305850;22;20038;-89
2023/06/17 06:12:06;;;;;;;0.00;0.00;;;;;;;;;;6310589;22;20007;-92
2023/06/17 06:14:31;;;;;;;0.00;0.00;;;17.30;99.90;;;;;;6309656;22;20007;-88
2023/06/17 06:16:57;;;;;;;0.00;0.00;;;;;;;;;;6309118;22;20022;-88
2023/06/17 06:19:22;;;;;;;0.00;0.00;;;17.20;99.90;;;;;;6307204;22;20007;-89
2023/06/17 06:21:48;;;;;;;0.00;0.00;;;17.40;99.90;;;;;;6305873;22;20087;-88
2023/06/17 06:24:14;;;;;;;0.00;0.00;;;;;;;;;;6307148;22;20032;-89
2023/06/17 06:26:40;;;;;;;0.00;0.00;;;17.90;99.90;;;;;;6307335;22;20011;-88
2023/06/17 06:29:07;;;;;;;0.00;0.00;;;18.10;99.90;;;;;;6306869;22;20320;-87
2023/06/17 06:31:32;;;;;;;0.00;0.00;;;18.20;99.90;;;;;;6309986;22;19999;-89
2023/06/17 06:33:58;;;;;;;0.00;0.00;;;18.10;99.90;;;;;;6308813;22;20144;-89
2023/06/17 06:36:24;;;;;;;0.00;0.00;;;;;;;;;;6308769;22;20003;-88
2023/06/17 06:38:50;;;;;;;0.00;0.00;;;;;;;;;;6307559;22;20347;-89
2023/06/17 06:41:15;;;;;;;0.00;0.00;;;18.30;99.90;;;;;;6308249;22;20029;-88
2023/06/17 06:43:41;;;;;;;0.00;0.00;;;18.10;99.90;;;;;;6309051;22;20003;-89
2023/06/17 06:46:07;;;;;;;0.00;0.00;;;;;;;;;;6308736;22;20003;-89
2023/06/17 06:48:32;;;;;;;0.00;0.00;;;18.00;99.90;;;;;;6307611;22;19995;-87
2023/06/17 06:50:58;;;;;;;0.00;0.00;;;;;;;;;;6309748;22;20004;-88
2023/06/17 06:53:24;;;;;;;0.00;0.00;;;17.90;99.90;;;;;;6307836;22;20008;-87
2023/06/17 06:55:50;;;;;;;0.00;0.00;;;;;;;;;;6307589;22;20041;-89
2023/06/17 06:58:16;;;;;;;0.00;0.00;;;;;;;;;;6306080;22;20378;-89
2023/06/17 07:00:42;;;;;;;0.00;0.00;;;;;;;;;;6305112;22;20007;-89
2023/06/17 07:03:08;;;;;;;0.00;0.00;;;18.30;99.90;;;;;;6305506;22;20003;-88
2023/06/17 07:05:33;;;;;;;0.00;0.00;;;18.30;99.90;;;;;;6303840;22;20048;-89
2023/06/17 07:08:00;;;;;;;0.00;0.00;;;18.30;99.90;;;;;;6305331;22;20003;-88
2023/06/17 07:10:25;;;;;;;0.00;0.00;;;18.50;99.90;;;;;;6306481;22;20000;-88
2023/06/17 07:12:51;;;;;;;0.00;0.00;;;;;;;;;;6306989;22;20013;-88
2023/06/17 07:15:17;;;;;;;0.00;0.00;;;18.40;99.90;;;;;;6306856;22;20003;-88
2023/06/17 07:17:43;;;;;;;0.00;0.00;;;;;;;;;;6306007;22;20423;-89
2023/06/17 07:20:09;;;;;;;0.00;0.00;;;18.30;99.90;;;;;;6307329;22;20011;-89
2023/06/17 07:22:35;;;;;;;0.00;0.00;;;;;;;;;;6309080;22;20003;-90
2023/06/17 07:25:01;;;;;;;0.00;0.00;;;18.30;99.90;;;;;;6308713;22;20011;-89
2023/06/17 07:27:26;;;;;;;0.00;0.00;;;18.50;99.90;;;;;;6307281;22;20090;-87
2023/06/17 07:29:52;;;;;;;0.00;0.00;;;;;;;;;;6309776;22;20006;-89
2023/06/17 07:32:18;;;;;;;0.00;0.00;;;18.40;99.90;;;;;;6305780;22;19999;-88
2023/06/17 07:34:43;;;;;;;0.00;0.00;;;18.50;99.90;;;;;;6305985;22;20049;-88
2023/06/17 07:37:09;;;;;;;0.00;0.00;;;20.00;99.90;;;;;;6307682;22;20082;-87
2023/06/17 07:39:35;;;;;;;0.00;0.00;;;;;;;;;;6308931;22;20013;-88
2023/06/17 07:42:01;;;;;;;0.00;0.00;;;18.40;99.90;;;;;;6308708;22;20060;-88
2023/06/17 07:44:26;;;;;;;0.00;0.00;;;;;;;;;;6308180;22;20086;-88
2023/06/17 07:46:52;;;;;;;0.00;0.00;;;;;;;;;;6304454;22;19996;-89
2023/06/17 07:49:18;;;;;;;0.00;0.00;;;18.80;99.90;;;;;;6306841;22;19991;-87
2023/06/17 07:51:44;;;;;;;0.00;0.00;;;;;;;;;;6306935;22;20065;-88
2023/06/17 07:54:09;;;;;;;0.00;0.00;;;18.90;99.90;;;;;;6307421;22;20027;-90
2023/06/17 07:56:35;;;;;;;0.00;0.00;;;;;;;;;;6309387;22;19999;-90
2023/06/17 07:59:02;;;;;;;0.00;0.00;;;18.80;99.90;;;;;;6307189;22;20007;-89
2023/06/17 08:01:27;;;;;;;0.00;0.00;;;;;;;;;;6306419;22;20011;-88
2023/06/17 08:03:53;;;;;;;0.00;0.00;;;19.20;99.90;;;;;;6306060;22;20457;-89
2023/06/17 08:06:18;;;;;;;0.00;0.00;;;19.20;99.90;;;;;;6308278;22;20035;-89
2023/06/17 08:08:45;;;;;;;0.00;0.00;;;;;;;;;;6306294;22;20074;-89
2023/06/17 08:11:11;;;;;;;0.00;0.00;;;19.40;99.90;;;;;;6308443;22;20030;-91
2023/06/17 08:13:37;;;;;;;0.00;0.00;;;;;;;;;;6307175;22;19999;-89
2023/06/17 08:16:03;;;;;;;0.00;0.00;;;;;;;;;;6304540;22;20039;-90
2023/06/17 08:18:28;;;;;;;0.00;0.00;;;19.50;99.90;;;;;;6307314;22;19999;-90
2023/06/17 08:20:54;;;;;;;0.00;0.00;;;19.70;99.90;;;;;;6309573;22;20046;-89
2023/06/17 08:23:20;;;;;;;0.00;0.00;;;;;;;;;;6308520;22;20003;-90
2023/06/17 08:25:46;;;;;;;0.00;0.00;;;;;;;;;;6304416;22;19996;-91
2023/06/17 08:28:12;;;;;;;0.00;0.00;;;19.80;99.90;;;;;;6306999;22;20013;-88
2023/06/17 08:30:37;;;;;;;0.00;0.00;;;19.90;99.90;;;;;;6307714;22;20070;-89
2023/06/17 08:33:03;;;;;;;0.00;0.00;;;;;;;;;;6308920;22;20007;-90
2023/06/17 08:35:31;;;;;;;0.00;0.00;;;19.50;99.90;;;;;;6308411;22;20003;-89
2023/06/17 08:37:57;;;;;;;0.00;0.00;;;19.30;99.90;;;;;;6307141;22;20455;-89
2023/06/17 08:40:23;;;;;;;0.00;0.00;;;19.70;99.90;;;;;;6308330;22;20010;-89
2023/06/17 08:43:03;;;;;;;0.00;0.00;;;19.70;99.90;;;;;;6305817;22;20007;-89
2023/06/17 08:45:30;;;;;;;0.00;0.00;;;19.70;99.90;;;;;;6304447;22;20007;-88
2023/06/17 08:47:56;;;;;;;0.00;0.00;;;19.80;99.90;;;;;;6306878;22;20331;-89
2023/06/17 08:50:26;;;;;;;0.00;0.00;;;20.00;99.90;;;;;;6306685;22;20003;-90
2023/06/17 08:52:52;;;;;;;0.00;0.00;;;20.40;99.90;;;;;;6307433;22;20040;-89
2023/06/17 08:55:18;;;;;;;0.00;0.00;;;;;;;;;;6307314;22;20082;-88
2023/06/17 08:57:45;;;;;;;0.00;0.00;;;20.50;99.90;;;;;;6306339;22;20084;-88
2023/06/17 09:00:11;;;;;;;0.00;0.00;;;20.60;99.90;;;;;;6306512;22;20472;-89
2023/06/17 09:02:38;;;;;;;0.00;0.00;;;;;;;;;;6304670;22;20014;-89
2023/06/17 09:05:04;;;;;;;0.00;0.00;;;21.00;99.90;;;;;;6305154;22;20108;-90
2023/06/17 09:07:30;;;;;;;0.00;0.00;;;;;;;;;;6307597;22;20315;-91
2023/06/17 09:10:05;;;;;;;0.00;0.00;;;20.40;99.90;;;;;;6304370;22;19996;-91
2023/06/17 09:12:38;;;;;;;0.00;0.00;;;20.60;99.90;;;;;;6308754;22;20003;-90
2023/06/17 09:15:06;;;;;;;0.00;0.00;;;20.90;99.80;;;;;;6307444;22;20008;-91
2023/06/17 09:17:32;;;;;;;0.00;0.00;;;;;;;;;;6306193;22;20083;-89
2023/06/17 09:20:11;;;;;;;0.00;0.00;;;20.40;99.90;;;;;;6305008;22;20042;-91
2023/06/17 09:22:41;;;;;;;0.00;0.00;;;20.50;99.90;;;;;;6304700;22;20072;-90
2023/06/17 09:25:13;;;;;;;0.00;0.00;;;20.30;99.90;;;;;;6306066;22;20011;-90
2023/06/17 09:27:46;;;;;;;0.00;0.00;;;20.70;99.90;;;;;;6308089;22;20007;-89
2023/06/17 09:30:15;;;;;;;0.00;0.00;;;21.10;99.90;;;;;;6307639;22;20019;-90
2023/06/17 09:32:43;;;;;;;0.00;0.00;;;20.80;99.90;;;;;;6308920;22;20426;-90
2023/06/17 09:35:16;;;;;;;0.00;0.00;;;20.70;99.90;;;;;;6306451;22;20654;-90
2023/06/17 09:37:50;;;;;;;0.00;0.00;;;20.80;99.90;;;;;;6307118;22;20007;-90
2023/06/17 09:40:16;;;;;;;0.00;0.00;;;20.90;99.90;;;;;;6307769;22;19999;-89
2023/06/17 09:42:46;;;;;;;0.00;0.00;;;20.90;99.90;;;;;;6306533;22;20082;-89
2023/06/17 09:45:19;;;;;;;0.00;0.00;;;21.00;99.90;;;;;;6307575;22;20003;-89
2023/06/17 09:47:51;;;;;;;0.00;0.00;;;20.70;99.90;;;;;;6306302;22;20045;-91
2023/06/17 09:50:17;;;;;;;0.00;0.00;;;20.60;99.90;;;;;;6307555;22;20006;-90
2023/06/17 09:52:43;;;;;;;0.00;0.00;;;;;;;;;;6307530;22;20007;-92
2023/06/17 09:55:10;;;;;;;0.00;0.00;;;21.00;99.70;;;;;;6306709;22;20312;-90
2023/06/17 09:57:39;;;;;;;0.00;0.00;;;;;;;;;;6306977;22;19999;-90
2023/06/17 10:00:10;;;;;;;0.00;0.00;;;21.00;99.90;;;;;;6306307;22;19995;-90
2023/06/17 10:02:37;;;;;;;0.00;0.00;;;20.90;99.90;;;;;;6307225;22;20057;-89
2023/06/17 10:05:04;;;;;;;0.00;0.00;;;21.50;99.60;;;;;;6306875;22;20004;-90
2023/06/17 10:07:30;;;;;;;0.00;0.00;;;21.50;99.70;;;;;;6307022;22;20431;-89
2023/06/17 10:09:57;;;;;;;0.00;0.00;;;;;;;;;;6307076;22;20480;-88
2023/06/17 10:12:24;;;;;;;0.00;0.00;;;21.80;99.40;;;;;;6307088;22;19999;-90
2023/06/17 10:14:50;;;;;;;0.00;0.00;;;21.80;99.10;;;;;;6306893;22;20034;-90
2023/06/17 10:17:18;;;;;;;0.00;0.00;;;21.70;98.80;;;;;;6306155;22;20049;-90
2023/06/17 10:19:46;;;;;;;0.00;0.00;;;21.80;99.10;;;;;;6307341;22;20010;-88
2023/06/17 10:22:15;;;;;;;0.00;0.00;;;22.30;98.50;;;;;;6307747;22;20007;-90
2023/06/17 10:24:43;;;;;;;0.00;0.00;;;22.10;97.80;;;;;;6306781;22;20003;-90
2023/06/17 10:27:09;;;;;;;0.00;0.00;;;21.80;98.70;;;;;;6306703;22;20084;-88
2023/06/17 10:29:35;;;;;;;0.00;0.00;;;21.70;99.10;;;;;;6307575;22;20003;-91
2023/06/17 10:32:24;;;;;;;0.00;0.00;;;22.00;98.50;;;;;;6307867;22;20207;-89
2023/06/17 10:35:05;;;;;;;0.00;0.00;;;22.30;97.40;;;;;;6307373;22;20053;-90
2023/06/17 10:37:31;;;;;;;0.00;0.00;;;22.40;97.90;;;;;;6307350;22;20417;-90
2023/06/17 10:40:26;;;;;;;0.00;0.00;;;22.00;97.00;;;;;;6305801;22;19999;-90
2023/06/17 10:43:01;;;;;;;0.00;0.00;;;21.90;97.40;;;;;;6307958;22;20007;-91
2023/06/17 10:45:32;;;;;;;0.00;0.00;;;22.10;98.00;;;;;;6307082;22;20057;-89
2023/06/17 10:48:20;;;;;;;0.00;0.00;;;22.00;98.10;;;;;;6306336;22;19999;-89
2023/06/17 10:50:50;;;;;;;0.00;0.00;;;22.40;96.90;;;;;;6305957;22;20019;-89
2023/06/17 10:53:16;;;;;;;0.00;0.00;;;22.40;97.00;;;;;;6306766;22;20015;-89
2023/06/17 10:55:43;;;;;;;0.00;0.00;;;22.50;96.30;;;;;;6305421;22;20031;-89
2023/06/17 10:58:10;;;;;;;0.00;0.00;;;22.70;96.80;;;;;;6305133;22;20295;-91
2023/06/17 11:00:36;;;;;;;0.00;0.00;;;;;;;;;;6300636;22;20014;-89
2023/06/17 11:03:01;;;;;;;0.00;0.00;;;22.80;96.50;;;;;;6302634;22;20015;-87
2023/06/17 11:05:34;;;;;;;0.00;0.00;;;22.90;96.90;;;;;;6301611;22;20098;-90
2023/06/17 11:07:59;;;;;;;0.00;0.00;;;22.90;96.10;;;;;;6301148;22;20450;-89
2023/06/17 11:10:25;;;;;;;0.00;0.00;;;;;;;;;;6304545;22;20006;-89
2023/06/17 11:12:52;;;;;;;0.00;0.00;;;22.30;96.80;;;;;;6304952;22;20006;-89
2023/06/17 11:15:18;;;;;;;0.00;0.00;;;22.40;97.30;;;;;;6304221;22;20034;-90
2023/06/17 11:17:44;;;;;;;0.00;0.00;;;;;;;;;;6302898;22;20061;-88
2023/06/17 11:20:11;;;;;;;0.00;0.00;;;22.40;97.20;;;;;;6302732;22;19996;-89
2023/06/17 11:22:40;;;;;;;0.00;0.00;;;22.40;96.50;;;;;;6304077;22;19999;-90
2023/06/17 11:25:06;;;;;;;0.00;0.00;;;22.20;96.50;;;;;;6304739;22;19999;-90
2023/06/17 11:27:32;;;;;;;0.00;0.00;;;;;;;;;;6305219;22;20061;-90
2023/06/17 11:29:58;;;;;;;0.00;0.00;;;;;;;;;;6303615;22;19999;-89
2023/06/17 11:32:24;;;;;;;0.00;0.00;;;23.00;96.50;;;;;;6304624;22;19999;-90
2023/06/17 11:34:51;;;;;;;0.00;0.00;;;24.20;97.00;;;;;;6304052;22;20019;-89
2023/06/17 11:37:17;;;;;;;0.00;0.00;;;;;;;;;;6305638;22;20090;-89
2023/06/17 11:39:43;;;;;;;0.00;0.00;;;;;;;;;;6304249;22;20011;-89
2023/06/17 11:42:10;;;;;;;0.00;0.00;;;23.50;95.30;;;;;;6304783;22;20010;-89
2023/06/17 11:44:36;;;;;;;0.00;0.00;;;25.40;95.80;;;;;;6304394;22;20057;-90
2023/06/17 11:47:09;;;;;;;0.00;0.00;;;23.50;96.00;;;;;;6303694;22;20188;-89
2023/06/17 11:49:35;;;;;;;0.00;0.00;;;23.40;95.20;;;;;;6302713;22;20330;-90
2023/06/17 11:52:05;;;;;;;0.00;0.00;;;23.60;94.60;;;;;;6305241;22;20023;-89
2023/06/17 11:54:31;;;;;;;0.00;0.00;;;23.30;95.00;;;;;;6304431;22;19995;-89
2023/06/17 11:56:56;;;;;;;0.00;0.00;;;23.40;95.00;;;;;;6304692;22;20041;-90
2023/06/17 11:59:22;;;;;;;0.00;0.00;;;;;;;;;;6304676;22;20003;-89
2023/06/17 12:01:48;;;;;;;0.00;0.00;;;;;;;;;;6305787;22;20007;-88
2023/06/17 12:04:14;;;;;;;0.00;0.00;;;;;;;;;;6303740;22;20010;-88
2023/06/17 12:06:41;;;;;;;0.00;0.00;;;23.50;94.30;;;;;;6304966;22;20003;-88
2023/06/17 12:09:08;;;;;;;0.00;0.00;;;23.50;94.50;;;;;;6304350;22;20003;-88
2023/06/17 12:11:38;;;;;;;0.00;0.00;;;23.60;93.30;;;;;;6304877;22;20018;-87
2023/06/17 12:14:07;;;;;;;;;;;23.70;93.50;;;;;;6304088;22;19999;-88
2023/06/17 12:16:34;;;;;;;;;;;23.80;93.30;;;;;;6304334;22;19910;-89
2023/06/17 12:19:03;;;;;;;0.00;0.00;;;24.10;92.70;;;;;;6303574;22;20216;-90
2023/06/17 12:21:28;;;;;;;0.00;0.00;;;24.00;92.80;;;;;;6304924;22;20003;-90
2023/06/17 12:23:55;;;;;;;0.00;0.00;;;;;;;;;;6304112;22;20325;-88
2023/06/17 12:26:24;;;;;;;0.00;0.00;;;;;;;;;;6306103;22;20007;-88
2023/06/17 12:28:50;;;;;;;;;;;24.00;93.10;;;;;;6303217;22;20064;-89
2023/06/17 12:31:17;;;;;;;0.00;0.00;;;24.20;93.00;;;;;;6303371;22;20414;-88
2023/06/17 12:33:44;;;;;;;0.00;0.00;;;24.20;92.80;;;;;;6304321;22;19999;-89
2023/06/17 12:36:10;;;;;;;0.00;0.00;;;;;;;;;;6304476;22;20007;-88
2023/06/17 12:38:37;;;;;;;0.00;0.00;;;24.40;92.00;;;;;;6303100;22;20003;-87
2023/06/17 12:41:04;;;;;;;0.00;0.00;;;;;;;;;;6302196;22;20003;-87
2023/06/17 12:43:30;;;;;;;0.00;0.00;;;;;;;;;;6305244;22;20010;-88
2023/06/17 12:45:58;;;;;;;0.00;0.00;;;24.20;91.90;;;;;;6305173;22;20082;-88
2023/06/17 12:48:25;;;;;;;0.00;0.00;;;23.90;91.20;;;;;;6305029;22;20052;-89
2023/06/17 12:50:51;;;;;;;0.00;0.00;;;;;;;;;;6306838;22;20546;-89
2023/06/17 12:53:17;;;;;;;0.00;0.00;;;;;;;;;;6304448;22;20012;-88
2023/06/17 12:55:43;;;;;;;0.00;0.00;;;24.20;91.90;;;;;;6304335;22;20014;-88
2023/06/17 12:58:10;;;;;;;0.00;0.00;;;24.40;91.40;;;;;;6303105;22;20493;-89
2023/06/17 13:00:36;;;;;;;0.00;0.00;;;24.50;90.70;;;;;;6304384;22;20011;-89
2023/06/17 13:03:02;;;;;;;0.00;0.00;;;;;;;;;;6305732;22;20008;-87
2023/06/17 13:05:28;;;;;;;0.00;0.00;;;;;;;;;;6304249;22;20003;-88
2023/06/17 13:07:54;;;;;;;0.00;0.00;;;;;;;;;;6305998;22;19999;-86
2023/06/17 13:10:21;;;;;;;0.00;0.00;;;;;;;;;;6307602;22;20027;-86
2023/06/17 13:12:47;;;;;;;0.00;0.00;;;;;;;;;;6306718;22;20006;-86
2023/06/17 13:15:13;;;;;;;0.00;0.00;;;;;;;;;;6305633;22;20381;-89
2023/06/17 13:17:39;;;;;;;0.00;0.00;;;;;;;;;;6307149;22;20422;-87
2023/06/17 13:20:05;;;;;;;0.00;0.00;;;25.00;86.80;;;;;;6304983;22;20026;-87
2023/06/17 13:22:33;;;;;;;0.00;0.00;;;25.10;85.90;;;;;;6306436;22;20137;-90